sensor_id;sensor_type;location;lat;lon;timestamp;P1;durP1;ratioP1;P2;durP2;ratioP2
75499;SDS011;64076;51.466;7.260;2023-04-15T00:01:01;7.07;;;6.37;;
75499;SDS011;64076;51.466;7.260;2023-04-15T00:03:27;7.43;;;6.30;;
75499;SDS011;64076;51.466;7.260;2023-04-15T00:05:53;7.97;;;6.30;;
75499;SDS011;64076;51.466;7.260;2023-04-15T00:08:20;8.43;;;7.55;;
75499;SDS011;64076;51.466;7.260;2023-04-15T00:10:46;7.63;;;6.43;;
75499;SDS011;64076;51.466;7.260;2023-04-15T00:13:12;7.30;;;6.30;;
75499;SDS011;64076;51.466;7.260;2023-04-15T00:15:39;7.57;;;6.25;;
75499;SDS011;64076;51.466;7.260;2023-04-15T00:18:05;8.35;;;6.30;;
75499;SDS011;64076;51.466;7.260;2023-04-15T00:20:32;8.85;;;6.75;;
75499;SDS011;64076;51.466;7.260;2023-04-15T00:22:58;7.25;;;6.30;;
75499;SDS011;64076;51.466;7.260;2023-04-15T00:25:24;11.27;;;6.77;;
75499;SDS011;64076;51.466;7.260;2023-04-15T00:27:50;7.55;;;6.43;;
75499;SDS011;64076;51.466;7.260;2023-04-15T00:30:16;8.77;;;6.78;;
75499;SDS011;64076;51.466;7.260;2023-04-15T00:32:42;6.63;;;5.80;;
75499;SDS011;64076;51.466;7.260;2023-04-15T00:35:08;8.55;;;6.70;;
75499;SDS011;64076;51.466;7.260;2023-04-15T00:37:34;9.17;;;6.57;;
75499;SDS011;64076;51.466;7.260;2023-04-15T00:40:00;7.28;;;6.57;;
75499;SDS011;64076;51.466;7.260;2023-04-15T00:42:27;8.40;;;6.97;;
75499;SDS011;64076;51.466;7.260;2023-04-15T00:44:53;9.68;;;6.97;;
75499;SDS011;64076;51.466;7.260;2023-04-15T00:47:19;8.90;;;6.60;;
75499;SDS011;64076;51.466;7.260;2023-04-15T00:49:46;9.03;;;6.47;;
75499;SDS011;64076;51.466;7.260;2023-04-15T00:52:12;7.15;;;6.25;;
75499;SDS011;64076;51.466;7.260;2023-04-15T00:54:38;8.63;;;6.65;;
75499;SDS011;64076;51.466;7.260;2023-04-15T00:57:05;7.78;;;7.00;;
75499;SDS011;64076;51.466;7.260;2023-04-15T00:59:32;7.20;;;6.20;;
75499;SDS011;64076;51.466;7.260;2023-04-15T01:01:59;8.27;;;7.37;;
75499;SDS011;64076;51.466;7.260;2023-04-15T01:04:25;8.05;;;6.78;;
75499;SDS011;64076;51.466;7.260;2023-04-15T01:07:07;8.27;;;6.40;;
75499;SDS011;64076;51.466;7.260;2023-04-15T01:09:33;8.15;;;7.05;;
75499;SDS011;64076;51.466;7.260;2023-04-15T01:11:59;8.37;;;7.13;;
75499;SDS011;64076;51.466;7.260;2023-04-15T01:14:26;9.10;;;6.97;;
75499;SDS011;64076;51.466;7.260;2023-04-15T01:16:52;7.78;;;6.95;;
75499;SDS011;64076;51.466;7.260;2023-04-15T01:19:18;8.32;;;6.60;;
75499;SDS011;64076;51.466;7.260;2023-04-15T01:21:44;10.30;;;7.95;;
75499;SDS011;64076;51.466;7.260;2023-04-15T01:24:10;8.20;;;7.10;;
75499;SDS011;64076;51.466;7.260;2023-04-15T01:26:39;9.93;;;7.70;;
75499;SDS011;64076;51.466;7.260;2023-04-15T01:29:05;8.57;;;6.78;;
75499;SDS011;64076;51.466;7.260;2023-04-15T01:31:32;9.23;;;7.95;;
75499;SDS011;64076;51.466;7.260;2023-04-15T01:33:58;8.20;;;7.00;;
75499;SDS011;64076;51.466;7.260;2023-04-15T01:36:24;8.30;;;6.93;;
75499;SDS011;64076;51.466;7.260;2023-04-15T01:38:50;9.10;;;7.47;;
75499;SDS011;64076;51.466;7.260;2023-04-15T01:41:16;7.28;;;6.57;;
75499;SDS011;64076;51.466;7.260;2023-04-15T01:43:47;9.57;;;7.95;;
75499;SDS011;64076;51.466;7.260;2023-04-15T01:46:13;8.93;;;6.87;;
75499;SDS011;64076;51.466;7.260;2023-04-15T01:48:39;8.65;;;6.85;;
75499;SDS011;64076;51.466;7.260;2023-04-15T01:51:05;10.52;;;7.88;;
75499;SDS011;64076;51.466;7.260;2023-04-15T01:53:32;8.80;;;7.20;;
75499;SDS011;64076;51.466;7.260;2023-04-15T01:55:58;10.05;;;7.82;;
75499;SDS011;64076;51.466;7.260;2023-04-15T01:58:24;8.70;;;6.40;;
75499;SDS011;64076;51.466;7.260;2023-04-15T02:00:51;9.68;;;7.70;;
75499;SDS011;64076;51.466;7.260;2023-04-15T02:03:17;8.13;;;7.18;;
75499;SDS011;64076;51.466;7.260;2023-04-15T02:05:43;7.97;;;7.18;;
75499;SDS011;64076;51.466;7.260;2023-04-15T02:08:09;11.13;;;9.47;;
75499;SDS011;64076;51.466;7.260;2023-04-15T02:10:36;10.30;;;8.07;;
75499;SDS011;64076;51.466;7.260;2023-04-15T02:13:02;9.20;;;7.43;;
75499;SDS011;64076;51.466;7.260;2023-04-15T02:15:28;11.68;;;9.35;;
75499;SDS011;64076;51.466;7.260;2023-04-15T02:17:54;8.43;;;7.50;;
75499;SDS011;64076;51.466;7.260;2023-04-15T02:20:24;10.53;;;8.70;;
75499;SDS011;64076;51.466;7.260;2023-04-15T02:22:50;9.70;;;7.93;;
75499;SDS011;64076;51.466;7.260;2023-04-15T02:25:16;9.95;;;7.85;;
75499;SDS011;64076;51.466;7.260;2023-04-15T02:27:42;9.07;;;7.80;;
75499;SDS011;64076;51.466;7.260;2023-04-15T02:30:09;9.57;;;8.55;;
75499;SDS011;64076;51.466;7.260;2023-04-15T02:32:35;10.67;;;8.70;;
75499;SDS011;64076;51.466;7.260;2023-04-15T02:35:05;10.95;;;9.30;;
75499;SDS011;64076;51.466;7.260;2023-04-15T02:37:32;10.60;;;8.63;;
75499;SDS011;64076;51.466;7.260;2023-04-15T02:40:01;10.10;;;8.30;;
75499;SDS011;64076;51.466;7.260;2023-04-15T02:42:27;9.68;;;7.97;;
75499;SDS011;64076;51.466;7.260;2023-04-15T02:44:54;9.57;;;8.57;;
75499;SDS011;64076;51.466;7.260;2023-04-15T02:47:20;8.43;;;7.55;;
75499;SDS011;64076;51.466;7.260;2023-04-15T02:49:47;9.15;;;7.88;;
75499;SDS011;64076;51.466;7.260;2023-04-15T02:52:13;9.25;;;8.02;;
75499;SDS011;64076;51.466;7.260;2023-04-15T02:54:39;10.63;;;8.87;;
75499;SDS011;64076;51.466;7.260;2023-04-15T02:57:05;10.55;;;7.60;;
75499;SDS011;64076;51.466;7.260;2023-04-15T02:59:31;9.93;;;8.93;;
75499;SDS011;64076;51.466;7.260;2023-04-15T03:01:57;8.90;;;7.70;;
75499;SDS011;64076;51.466;7.260;2023-04-15T03:04:25;9.80;;;8.67;;
75499;SDS011;64076;51.466;7.260;2023-04-15T03:06:53;9.68;;;8.68;;
75499;SDS011;64076;51.466;7.260;2023-04-15T03:09:20;9.15;;;7.85;;
75499;SDS011;64076;51.466;7.260;2023-04-15T03:11:46;10.38;;;8.38;;
75499;SDS011;64076;51.466;7.260;2023-04-15T03:14:12;8.82;;;7.63;;
75499;SDS011;64076;51.466;7.260;2023-04-15T03:16:38;11.40;;;7.70;;
75499;SDS011;64076;51.466;7.260;2023-04-15T03:19:04;9.02;;;7.55;;
75499;SDS011;64076;51.466;7.260;2023-04-15T03:21:30;9.95;;;8.88;;
75499;SDS011;64076;51.466;7.260;2023-04-15T03:23:56;11.80;;;7.82;;
75499;SDS011;64076;51.466;7.260;2023-04-15T03:26:25;10.00;;;8.57;;
75499;SDS011;64076;51.466;7.260;2023-04-15T03:28:52;9.82;;;8.18;;
75499;SDS011;64076;51.466;7.260;2023-04-15T03:31:18;10.60;;;7.82;;
75499;SDS011;64076;51.466;7.260;2023-04-15T03:33:44;9.45;;;7.97;;
75499;SDS011;64076;51.466;7.260;2023-04-15T03:36:10;10.38;;;7.55;;
75499;SDS011;64076;51.466;7.260;2023-04-15T03:38:36;8.77;;;7.87;;
75499;SDS011;64076;51.466;7.260;2023-04-15T03:41:02;9.20;;;8.27;;
75499;SDS011;64076;51.466;7.260;2023-04-15T03:43:28;9.02;;;7.30;;
75499;SDS011;64076;51.466;7.260;2023-04-15T03:45:54;8.88;;;7.18;;
75499;SDS011;64076;51.466;7.260;2023-04-15T03:48:20;9.03;;;7.20;;
75499;SDS011;64076;51.466;7.260;2023-04-15T03:50:46;9.00;;;8.07;;
75499;SDS011;64076;51.466;7.260;2023-04-15T03:53:12;9.95;;;8.82;;
75499;SDS011;64076;51.466;7.260;2023-04-15T03:55:38;11.10;;;7.15;;
75499;SDS011;64076;51.466;7.260;2023-04-15T03:58:04;8.07;;;7.13;;
75499;SDS011;64076;51.466;7.260;2023-04-15T04:00:30;9.80;;;8.50;;
75499;SDS011;64076;51.466;7.260;2023-04-15T04:02:56;10.00;;;7.90;;
75499;SDS011;64076;51.466;7.260;2023-04-15T04:05:22;9.00;;;7.22;;
75499;SDS011;64076;51.466;7.260;2023-04-15T04:07:51;10.27;;;8.20;;
75499;SDS011;64076;51.466;7.260;2023-04-15T04:10:17;9.65;;;8.55;;
75499;SDS011;64076;51.466;7.260;2023-04-15T04:12:43;8.52;;;7.22;;
75499;SDS011;64076;51.466;7.260;2023-04-15T04:15:09;8.00;;;6.93;;
75499;SDS011;64076;51.466;7.260;2023-04-15T04:17:35;8.77;;;7.65;;
75499;SDS011;64076;51.466;7.260;2023-04-15T04:20:01;8.40;;;7.50;;
75499;SDS011;64076;51.466;7.260;2023-04-15T04:22:27;8.70;;;7.40;;
75499;SDS011;64076;51.466;7.260;2023-04-15T04:24:53;9.27;;;6.97;;
75499;SDS011;64076;51.466;7.260;2023-04-15T04:27:19;10.00;;;7.95;;
75499;SDS011;64076;51.466;7.260;2023-04-15T04:29:45;9.40;;;7.32;;
75499;SDS011;64076;51.466;7.260;2023-04-15T04:32:11;10.83;;;8.90;;
75499;SDS011;64076;51.466;7.260;2023-04-15T04:34:37;9.90;;;7.90;;
75499;SDS011;64076;51.466;7.260;2023-04-15T04:37:03;8.88;;;7.63;;
75499;SDS011;64076;51.466;7.260;2023-04-15T04:39:29;10.68;;;7.30;;
75499;SDS011;64076;51.466;7.260;2023-04-15T04:41:56;10.47;;;8.53;;
75499;SDS011;64076;51.466;7.260;2023-04-15T04:44:22;8.95;;;7.32;;
75499;SDS011;64076;51.466;7.260;2023-04-15T04:46:48;9.90;;;8.75;;
75499;SDS011;64076;51.466;7.260;2023-04-15T04:49:14;8.52;;;7.60;;
75499;SDS011;64076;51.466;7.260;2023-04-15T04:51:40;8.17;;;7.00;;
75499;SDS011;64076;51.466;7.260;2023-04-15T04:54:06;9.07;;;7.07;;
75499;SDS011;64076;51.466;7.260;2023-04-15T04:56:32;8.45;;;7.45;;
75499;SDS011;64076;51.466;7.260;2023-04-15T04:58:58;8.20;;;7.07;;
75499;SDS011;64076;51.466;7.260;2023-04-15T05:01:25;9.43;;;7.88;;
75499;SDS011;64076;51.466;7.260;2023-04-15T05:03:51;9.80;;;7.70;;
75499;SDS011;64076;51.466;7.260;2023-04-15T05:06:17;9.95;;;7.57;;
75499;SDS011;64076;51.466;7.260;2023-04-15T05:08:43;9.15;;;7.13;;
75499;SDS011;64076;51.466;7.260;2023-04-15T05:11:10;8.13;;;7.28;;
75499;SDS011;64076;51.466;7.260;2023-04-15T05:13:37;8.40;;;7.50;;
75499;SDS011;64076;51.466;7.260;2023-04-15T05:16:03;7.70;;;6.87;;
75499;SDS011;64076;51.466;7.260;2023-04-15T05:18:29;7.57;;;6.45;;
75499;SDS011;64076;51.466;7.260;2023-04-15T05:20:56;8.30;;;6.43;;
75499;SDS011;64076;51.466;7.260;2023-04-15T05:23:22;6.63;;;5.50;;
75499;SDS011;64076;51.466;7.260;2023-04-15T05:25:48;7.07;;;5.97;;
75499;SDS011;64076;51.466;7.260;2023-04-15T05:28:14;6.67;;;4.93;;
75499;SDS011;64076;51.466;7.260;2023-04-15T05:30:40;6.15;;;5.00;;
75499;SDS011;64076;51.466;7.260;2023-04-15T05:33:06;5.63;;;5.03;;
75499;SDS011;64076;51.466;7.260;2023-04-15T05:35:32;5.53;;;4.47;;
75499;SDS011;64076;51.466;7.260;2023-04-15T05:37:58;5.10;;;3.90;;
75499;SDS011;64076;51.466;7.260;2023-04-15T05:40:24;4.80;;;4.00;;
75499;SDS011;64076;51.466;7.260;2023-04-15T05:42:50;4.80;;;4.05;;
75499;SDS011;64076;51.466;7.260;2023-04-15T05:45:16;4.97;;;4.28;;
75499;SDS011;64076;51.466;7.260;2023-04-15T05:47:42;4.40;;;3.55;;
75499;SDS011;64076;51.466;7.260;2023-04-15T05:50:08;4.73;;;3.80;;
75499;SDS011;64076;51.466;7.260;2023-04-15T05:52:35;4.85;;;3.75;;
75499;SDS011;64076;51.466;7.260;2023-04-15T05:55:01;4.57;;;3.40;;
75499;SDS011;64076;51.466;7.260;2023-04-15T05:57:27;3.75;;;3.15;;
75499;SDS011;64076;51.466;7.260;2023-04-15T05:59:53;4.37;;;3.63;;
75499;SDS011;64076;51.466;7.260;2023-04-15T06:02:21;3.55;;;3.10;;
75499;SDS011;64076;51.466;7.260;2023-04-15T06:04:47;3.28;;;2.97;;
75499;SDS011;64076;51.466;7.260;2023-04-15T06:07:13;3.97;;;3.10;;
75499;SDS011;64076;51.466;7.260;2023-04-15T06:09:39;3.37;;;2.90;;
75499;SDS011;64076;51.466;7.260;2023-04-15T06:12:05;4.03;;;2.90;;
75499;SDS011;64076;51.466;7.260;2023-04-15T06:14:35;3.70;;;3.08;;
75499;SDS011;64076;51.466;7.260;2023-04-15T06:17:01;3.67;;;3.17;;
75499;SDS011;64076;51.466;7.260;2023-04-15T06:19:31;3.87;;;3.20;;
75499;SDS011;64076;51.466;7.260;2023-04-15T06:21:57;3.30;;;2.95;;
75499;SDS011;64076;51.466;7.260;2023-04-15T06:24:23;3.65;;;3.05;;
75499;SDS011;64076;51.466;7.260;2023-04-15T06:26:49;2.97;;;2.42;;
75499;SDS011;64076;51.466;7.260;2023-04-15T06:29:15;3.33;;;2.72;;
75499;SDS011;64076;51.466;7.260;2023-04-15T06:31:41;3.00;;;2.67;;
75499;SDS011;64076;51.466;7.260;2023-04-15T06:34:07;3.90;;;3.30;;
75499;SDS011;64076;51.466;7.260;2023-04-15T06:36:33;3.00;;;2.70;;
75499;SDS011;64076;51.466;7.260;2023-04-15T06:38:58;3.38;;;2.83;;
75499;SDS011;64076;51.466;7.260;2023-04-15T06:41:25;3.17;;;2.50;;
75499;SDS011;64076;51.466;7.260;2023-04-15T06:43:51;2.95;;;2.55;;
75499;SDS011;64076;51.466;7.260;2023-04-15T06:46:17;2.83;;;2.47;;
75499;SDS011;64076;51.466;7.260;2023-04-15T06:48:43;3.13;;;2.27;;
75499;SDS011;64076;51.466;7.260;2023-04-15T06:51:08;2.90;;;2.13;;
75499;SDS011;64076;51.466;7.260;2023-04-15T06:53:34;3.23;;;2.50;;
75499;SDS011;64076;51.466;7.260;2023-04-15T06:56:00;2.97;;;2.63;;
75499;SDS011;64076;51.466;7.260;2023-04-15T06:58:26;3.37;;;2.70;;
75499;SDS011;64076;51.466;7.260;2023-04-15T07:00:51;2.83;;;2.40;;
75499;SDS011;64076;51.466;7.260;2023-04-15T07:03:17;3.55;;;2.50;;
75499;SDS011;64076;51.466;7.260;2023-04-15T07:05:43;2.50;;;2.10;;
75499;SDS011;64076;51.466;7.260;2023-04-15T07:08:09;3.08;;;2.22;;
75499;SDS011;64076;51.466;7.260;2023-04-15T07:10:36;3.05;;;2.63;;
75499;SDS011;64076;51.466;7.260;2023-04-15T07:13:02;3.17;;;2.35;;
75499;SDS011;64076;51.466;7.260;2023-04-15T07:15:28;3.20;;;2.55;;
75499;SDS011;64076;51.466;7.260;2023-04-15T07:17:54;4.20;;;3.00;;
75499;SDS011;64076;51.466;7.260;2023-04-15T07:20:20;4.03;;;2.90;;
75499;SDS011;64076;51.466;7.260;2023-04-15T07:22:45;5.20;;;3.30;;
75499;SDS011;64076;51.466;7.260;2023-04-15T07:25:11;4.60;;;3.20;;
75499;SDS011;64076;51.466;7.260;2023-04-15T07:27:36;3.80;;;2.75;;
75499;SDS011;64076;51.466;7.260;2023-04-15T07:30:02;4.60;;;2.90;;
75499;SDS011;64076;51.466;7.260;2023-04-15T07:32:28;3.13;;;2.70;;
75499;SDS011;64076;51.466;7.260;2023-04-15T07:34:53;3.70;;;2.90;;
75499;SDS011;64076;51.466;7.260;2023-04-15T07:37:19;7.07;;;3.43;;
75499;SDS011;64076;51.466;7.260;2023-04-15T07:39:44;3.67;;;3.17;;
75499;SDS011;64076;51.466;7.260;2023-04-15T07:42:10;8.80;;;3.43;;
75499;SDS011;64076;51.466;7.260;2023-04-15T07:44:35;6.23;;;2.90;;
75499;SDS011;64076;51.466;7.260;2023-04-15T07:47:01;5.37;;;3.37;;
75499;SDS011;64076;51.466;7.260;2023-04-15T07:49:28;5.82;;;3.70;;
75499;SDS011;64076;51.466;7.260;2023-04-15T07:51:53;7.27;;;3.60;;
75499;SDS011;64076;51.466;7.260;2023-04-15T07:54:20;5.55;;;3.30;;
75499;SDS011;64076;51.466;7.260;2023-04-15T07:56:45;4.27;;;3.20;;
75499;SDS011;64076;51.466;7.260;2023-04-15T07:59:11;7.13;;;3.35;;
75499;SDS011;64076;51.466;7.260;2023-04-15T08:01:37;4.60;;;2.87;;
75499;SDS011;64076;51.466;7.260;2023-04-15T08:04:02;3.80;;;3.20;;
75499;SDS011;64076;51.466;7.260;2023-04-15T08:06:28;4.10;;;3.20;;
75499;SDS011;64076;51.466;7.260;2023-04-15T08:08:54;5.20;;;3.50;;
75499;SDS011;64076;51.466;7.260;2023-04-15T08:11:20;4.30;;;3.10;;
75499;SDS011;64076;51.466;7.260;2023-04-15T08:13:46;6.60;;;3.20;;
75499;SDS011;64076;51.466;7.260;2023-04-15T08:16:13;4.93;;;3.30;;
75499;SDS011;64076;51.466;7.260;2023-04-15T08:18:43;4.30;;;3.20;;
75499;SDS011;64076;51.466;7.260;2023-04-15T08:21:10;4.90;;;3.40;;
75499;SDS011;64076;51.466;7.260;2023-04-15T08:23:35;3.80;;;3.15;;
75499;SDS011;64076;51.466;7.260;2023-04-15T08:26:01;4.90;;;3.20;;
75499;SDS011;64076;51.466;7.260;2023-04-15T08:28:27;5.30;;;3.00;;
75499;SDS011;64076;51.466;7.260;2023-04-15T08:30:52;3.27;;;2.50;;
75499;SDS011;64076;51.466;7.260;2023-04-15T08:33:18;4.05;;;3.15;;
75499;SDS011;64076;51.466;7.260;2023-04-15T08:35:43;4.93;;;2.73;;
75499;SDS011;64076;51.466;7.260;2023-04-15T08:38:10;5.28;;;3.00;;
75499;SDS011;64076;51.466;7.260;2023-04-15T08:40:40;8.27;;;3.10;;
75499;SDS011;64076;51.466;7.260;2023-04-15T08:43:08;3.63;;;3.20;;
75499;SDS011;64076;51.466;7.260;2023-04-15T08:45:37;6.03;;;3.05;;
75499;SDS011;64076;51.466;7.260;2023-04-15T08:48:04;7.63;;;2.53;;
75499;SDS011;64076;51.466;7.260;2023-04-15T08:50:30;5.13;;;3.40;;
75499;SDS011;64076;51.466;7.260;2023-04-15T08:52:57;5.93;;;2.92;;
75499;SDS011;64076;51.466;7.260;2023-04-15T08:55:25;6.10;;;3.17;;
75499;SDS011;64076;51.466;7.260;2023-04-15T08:57:57;3.77;;;3.07;;
75499;SDS011;64076;51.466;7.260;2023-04-15T09:00:23;4.75;;;3.00;;
75499;SDS011;64076;51.466;7.260;2023-04-15T09:02:50;3.20;;;2.78;;
75499;SDS011;64076;51.466;7.260;2023-04-15T09:05:16;3.35;;;2.97;;
75499;SDS011;64076;51.466;7.260;2023-04-15T09:07:41;3.37;;;2.77;;
75499;SDS011;64076;51.466;7.260;2023-04-15T09:10:07;4.00;;;2.57;;
75499;SDS011;64076;51.466;7.260;2023-04-15T09:12:34;3.10;;;2.22;;
75499;SDS011;64076;51.466;7.260;2023-04-15T09:15:00;3.30;;;2.78;;
75499;SDS011;64076;51.466;7.260;2023-04-15T09:17:27;3.50;;;2.58;;
75499;SDS011;64076;51.466;7.260;2023-04-15T09:20:12;3.85;;;2.60;;
75499;SDS011;64076;51.466;7.260;2023-04-15T09:22:39;3.40;;;2.77;;
75499;SDS011;64076;51.466;7.260;2023-04-15T09:30:14;4.40;;;3.00;;
75499;SDS011;64076;51.466;7.260;2023-04-15T09:32:48;4.97;;;2.78;;
75499;SDS011;64076;51.466;7.260;2023-04-15T09:35:13;3.47;;;3.17;;
75499;SDS011;64076;51.466;7.260;2023-04-15T09:37:39;6.38;;;3.00;;
75499;SDS011;64076;51.466;7.260;2023-04-15T09:40:05;3.77;;;2.57;;
75499;SDS011;64076;51.466;7.260;2023-04-15T09:42:31;4.53;;;2.80;;
75499;SDS011;64076;51.466;7.260;2023-04-15T09:45:07;4.97;;;2.88;;
75499;SDS011;64076;51.466;7.260;2023-04-15T09:47:34;7.50;;;2.50;;
75499;SDS011;64076;51.466;7.260;2023-04-15T09:50:00;5.43;;;2.80;;
75499;SDS011;64076;51.466;7.260;2023-04-15T09:52:26;3.85;;;3.40;;
75499;SDS011;64076;51.466;7.260;2023-04-15T09:54:53;5.13;;;2.97;;
75499;SDS011;64076;51.466;7.260;2023-04-15T09:57:22;4.23;;;3.50;;
75499;SDS011;64076;51.466;7.260;2023-04-15T09:59:48;6.20;;;3.45;;
75499;SDS011;64076;51.466;7.260;2023-04-15T10:02:17;4.57;;;3.83;;
75499;SDS011;64076;51.466;7.260;2023-04-15T10:04:47;4.18;;;3.22;;
75499;SDS011;64076;51.466;7.260;2023-04-15T10:07:13;4.03;;;3.60;;
75499;SDS011;64076;51.466;7.260;2023-04-15T10:09:39;4.30;;;3.20;;
75499;SDS011;64076;51.466;7.260;2023-04-15T10:12:05;4.60;;;3.20;;
75499;SDS011;64076;51.466;7.260;2023-04-15T10:14:33;4.30;;;3.10;;
75499;SDS011;64076;51.466;7.260;2023-04-15T10:17:02;3.40;;;3.10;;
75499;SDS011;64076;51.466;7.260;2023-04-15T10:19:33;3.97;;;3.25;;
75499;SDS011;64076;51.466;7.260;2023-04-15T10:22:01;3.50;;;2.90;;
75499;SDS011;64076;51.466;7.260;2023-04-15T10:24:27;3.78;;;3.38;;
75499;SDS011;64076;51.466;7.260;2023-04-15T10:26:55;3.42;;;3.03;;
75499;SDS011;64076;51.466;7.260;2023-04-15T10:29:21;3.97;;;3.20;;
75499;SDS011;64076;51.466;7.260;2023-04-15T10:31:49;4.35;;;2.95;;
75499;SDS011;64076;51.466;7.260;2023-04-15T10:34:16;4.13;;;3.17;;
75499;SDS011;64076;51.466;7.260;2023-04-15T10:36:43;3.58;;;3.17;;
75499;SDS011;64076;51.466;7.260;2023-04-15T10:42:04;3.03;;;2.67;;
75499;SDS011;64076;51.466;7.260;2023-04-15T10:44:36;3.53;;;2.58;;
75499;SDS011;64076;51.466;7.260;2023-04-15T10:47:22;3.13;;;2.53;;
75499;SDS011;64076;51.466;7.260;2023-04-15T10:49:51;5.13;;;2.90;;
75499;SDS011;64076;51.466;7.260;2023-04-15T10:52:26;5.20;;;2.72;;
75499;SDS011;64076;51.466;7.260;2023-04-15T10:57:43;3.72;;;2.80;;
75499;SDS011;64076;51.466;7.260;2023-04-15T11:00:15;3.03;;;2.70;;
75499;SDS011;64076;51.466;7.260;2023-04-15T11:08:08;4.30;;;2.78;;
75499;SDS011;64076;51.466;7.260;2023-04-15T11:13:03;5.73;;;2.70;;
75499;SDS011;64076;51.466;7.260;2023-04-15T11:15:30;5.85;;;2.30;;
75499;SDS011;64076;51.466;7.260;2023-04-15T11:18:09;6.15;;;2.63;;
75499;SDS011;64076;51.466;7.260;2023-04-15T11:20:52;3.53;;;2.47;;
75499;SDS011;64076;51.466;7.260;2023-04-15T11:23:36;4.93;;;2.42;;
75499;SDS011;64076;51.466;7.260;2023-04-15T11:26:05;4.05;;;2.20;;
75499;SDS011;64076;51.466;7.260;2023-04-15T11:28:36;4.60;;;2.17;;
75499;SDS011;64076;51.466;7.260;2023-04-15T11:31:10;3.78;;;2.30;;
75499;SDS011;64076;51.466;7.260;2023-04-15T11:33:52;3.80;;;1.90;;
75499;SDS011;64076;51.466;7.260;2023-04-15T11:36:18;4.20;;;2.05;;
75499;SDS011;64076;51.466;7.260;2023-04-15T11:38:47;6.03;;;2.13;;
75499;SDS011;64076;51.466;7.260;2023-04-15T11:41:12;3.57;;;1.93;;
75499;SDS011;64076;51.466;7.260;2023-04-15T11:43:38;3.72;;;1.90;;
75499;SDS011;64076;51.466;7.260;2023-04-15T11:46:03;4.97;;;1.97;;
75499;SDS011;64076;51.466;7.260;2023-04-15T11:48:30;4.20;;;1.73;;
75499;SDS011;64076;51.466;7.260;2023-04-15T11:51:03;2.40;;;1.90;;
75499;SDS011;64076;51.466;7.260;2023-04-15T11:53:43;5.07;;;1.87;;
75499;SDS011;64076;51.466;7.260;2023-04-15T11:56:15;2.45;;;1.77;;
75499;SDS011;64076;51.466;7.260;2023-04-15T11:58:42;3.60;;;2.40;;
75499;SDS011;64076;51.466;7.260;2023-04-15T12:01:08;2.80;;;1.48;;
75499;SDS011;64076;51.466;7.260;2023-04-15T12:03:41;2.00;;;1.57;;
75499;SDS011;64076;51.466;7.260;2023-04-15T12:09:03;2.05;;;1.55;;
75499;SDS011;64076;51.466;7.260;2023-04-15T12:11:42;2.08;;;1.55;;
75499;SDS011;64076;51.466;7.260;2023-04-15T12:16:46;2.30;;;1.50;;
75499;SDS011;64076;51.466;7.260;2023-04-15T12:19:14;3.00;;;1.60;;
75499;SDS011;64076;51.466;7.260;2023-04-15T12:21:43;2.13;;;1.70;;
75499;SDS011;64076;51.466;7.260;2023-04-15T12:24:11;3.22;;;1.52;;
75499;SDS011;64076;51.466;7.260;2023-04-15T12:26:37;2.00;;;1.77;;
75499;SDS011;64076;51.466;7.260;2023-04-15T12:29:12;2.37;;;1.33;;
75499;SDS011;64076;51.466;7.260;2023-04-15T12:31:46;1.90;;;1.30;;
75499;SDS011;64076;51.466;7.260;2023-04-15T12:34:13;2.53;;;1.50;;
75499;SDS011;64076;51.466;7.260;2023-04-15T12:36:39;3.88;;;1.60;;
75499;SDS011;64076;51.466;7.260;2023-04-15T12:39:05;2.13;;;1.40;;
75499;SDS011;64076;51.466;7.260;2023-04-15T12:41:31;2.70;;;1.50;;
75499;SDS011;64076;51.466;7.260;2023-04-15T12:43:57;2.50;;;1.30;;
75499;SDS011;64076;51.466;7.260;2023-04-15T12:46:22;1.95;;;1.20;;
75499;SDS011;64076;51.466;7.260;2023-04-15T12:48:49;3.72;;;1.13;;
75499;SDS011;64076;51.466;7.260;2023-04-15T12:51:15;2.00;;;1.30;;
75499;SDS011;64076;51.466;7.260;2023-04-15T12:53:41;2.10;;;1.20;;
75499;SDS011;64076;51.466;7.260;2023-04-15T12:56:07;1.93;;;1.30;;
75499;SDS011;64076;51.466;7.260;2023-04-15T12:58:32;13.13;;;1.80;;
75499;SDS011;64076;51.466;7.260;2023-04-15T13:00:58;16.73;;;2.00;;
75499;SDS011;64076;51.466;7.260;2023-04-15T13:03:23;8.33;;;1.40;;
75499;SDS011;64076;51.466;7.260;2023-04-15T13:05:49;8.15;;;1.55;;
75499;SDS011;64076;51.466;7.260;2023-04-15T13:08:15;6.57;;;1.50;;
75499;SDS011;64076;51.466;7.260;2023-04-15T13:10:41;11.75;;;1.85;;
75499;SDS011;64076;51.466;7.260;2023-04-15T13:13:07;4.40;;;1.40;;
75499;SDS011;64076;51.466;7.260;2023-04-15T13:15:33;7.00;;;1.50;;
75499;SDS011;64076;51.466;7.260;2023-04-15T13:17:59;9.80;;;1.80;;
75499;SDS011;64076;51.466;7.260;2023-04-15T13:20:25;5.63;;;1.50;;
75499;SDS011;64076;51.466;7.260;2023-04-15T13:22:53;3.37;;;1.17;;
75499;SDS011;64076;51.466;7.260;2023-04-15T13:25:19;2.43;;;1.40;;
75499;SDS011;64076;51.466;7.260;2023-04-15T13:27:45;6.75;;;1.50;;
75499;SDS011;64076;51.466;7.260;2023-04-15T13:30:11;8.07;;;1.30;;
75499;SDS011;64076;51.466;7.260;2023-04-15T13:32:37;4.67;;;1.50;;
75499;SDS011;64076;51.466;7.260;2023-04-15T13:35:02;3.90;;;1.50;;
75499;SDS011;64076;51.466;7.260;2023-04-15T13:37:29;3.27;;;1.10;;
75499;SDS011;64076;51.466;7.260;2023-04-15T13:39:55;2.05;;;1.40;;
75499;SDS011;64076;51.466;7.260;2023-04-15T13:42:21;3.92;;;1.30;;
75499;SDS011;64076;51.466;7.260;2023-04-15T13:44:48;1.63;;;1.02;;
75499;SDS011;64076;51.466;7.260;2023-04-15T13:47:15;2.67;;;1.00;;
75499;SDS011;64076;51.466;7.260;2023-04-15T13:49:41;3.85;;;1.67;;
75499;SDS011;64076;51.466;7.260;2023-04-15T13:52:07;3.90;;;1.25;;
75499;SDS011;64076;51.466;7.260;2023-04-15T13:54:33;1.77;;;1.00;;
75499;SDS011;64076;51.466;7.260;2023-04-15T13:56:58;2.10;;;1.30;;
75499;SDS011;64076;51.466;7.260;2023-04-15T13:59:24;7.67;;;1.53;;
75499;SDS011;64076;51.466;7.260;2023-04-15T14:01:49;2.50;;;1.00;;
75499;SDS011;64076;51.466;7.260;2023-04-15T14:04:15;3.55;;;1.30;;
75499;SDS011;64076;51.466;7.260;2023-04-15T14:06:40;2.43;;;1.20;;
75499;SDS011;64076;51.466;7.260;2023-04-15T14:09:06;1.40;;;1.00;;
75499;SDS011;64076;51.466;7.260;2023-04-15T14:11:31;3.38;;;1.33;;
75499;SDS011;64076;51.466;7.260;2023-04-15T14:13:59;1.85;;;1.08;;
75499;SDS011;64076;51.466;7.260;2023-04-15T14:16:24;3.40;;;1.10;;
75499;SDS011;64076;51.466;7.260;2023-04-15T14:18:50;2.00;;;1.50;;
75499;SDS011;64076;51.466;7.260;2023-04-15T14:21:16;1.80;;;1.10;;
75499;SDS011;64076;51.466;7.260;2023-04-15T14:23:41;1.50;;;0.93;;
75499;SDS011;64076;51.466;7.260;2023-04-15T14:26:07;2.60;;;1.17;;
75499;SDS011;64076;51.466;7.260;2023-04-15T14:28:32;3.73;;;1.60;;
75499;SDS011;64076;51.466;7.260;2023-04-15T14:30:58;2.17;;;1.13;;
75499;SDS011;64076;51.466;7.260;2023-04-15T14:33:23;1.67;;;1.23;;
75499;SDS011;64076;51.466;7.260;2023-04-15T14:35:50;1.60;;;1.10;;
75499;SDS011;64076;51.466;7.260;2023-04-15T14:38:15;2.53;;;1.20;;
75499;SDS011;64076;51.466;7.260;2023-04-15T14:40:41;2.20;;;1.30;;
75499;SDS011;64076;51.466;7.260;2023-04-15T14:43:07;1.50;;;0.90;;
75499;SDS011;64076;51.466;7.260;2023-04-15T14:45:32;1.60;;;1.10;;
75499;SDS011;64076;51.466;7.260;2023-04-15T14:47:58;1.70;;;1.40;;
75499;SDS011;64076;51.466;7.260;2023-04-15T14:50:24;2.93;;;1.47;;
75499;SDS011;64076;51.466;7.260;2023-04-15T14:52:49;2.10;;;1.20;;
75499;SDS011;64076;51.466;7.260;2023-04-15T14:55:15;1.65;;;1.20;;
75499;SDS011;64076;51.466;7.260;2023-04-15T14:57:41;2.80;;;1.10;;
75499;SDS011;64076;51.466;7.260;2023-04-15T15:00:07;2.60;;;1.20;;
75499;SDS011;64076;51.466;7.260;2023-04-15T15:02:34;2.63;;;1.20;;
75499;SDS011;64076;51.466;7.260;2023-04-15T15:05:00;2.90;;;1.08;;
75499;SDS011;64076;51.466;7.260;2023-04-15T15:07:26;3.50;;;1.10;;